sensor_id;sensor_type;location;lat;lon;timestamp;P1;durP1;ratioP1;P2;durP2;ratioP2
68192;SDS011;55012;47.562;18.414;2023-08-12T00:01:01;12.20;;;7.20;;
68192;SDS011;55012;47.562;18.414;2023-08-12T00:03:26;15.93;;;8.77;;
68192;SDS011;55012;47.562;18.414;2023-08-12T00:05:52;13.38;;;8.70;;
68192;SDS011;55012;47.562;18.414;2023-08-12T00:08:18;16.27;;;10.27;;
68192;SDS011;55012;47.562;18.414;2023-08-12T00:10:44;13.35;;;7.90;;
68192;SDS011;55012;47.562;18.414;2023-08-12T00:13:10;13.43;;;8.40;;
68192;SDS011;55012;47.562;18.414;2023-08-12T00:15:35;13.55;;;8.65;;
68192;SDS011;55012;47.562;18.414;2023-08-12T00:18:01;18.02;;;10.00;;
68192;SDS011;55012;47.562;18.414;2023-08-12T00:20:29;20.55;;;12.63;;
68192;SDS011;55012;47.562;18.414;2023-08-12T00:22:55;13.25;;;8.80;;
68192;SDS011;55012;47.562;18.414;2023-08-12T00:25:20;16.80;;;10.23;;
68192;SDS011;55012;47.562;18.414;2023-08-12T00:27:45;14.32;;;8.50;;
68192;SDS011;55012;47.562;18.414;2023-08-12T00:30:14;17.05;;;10.60;;
68192;SDS011;55012;47.562;18.414;2023-08-12T00:32:40;16.00;;;9.25;;
68192;SDS011;55012;47.562;18.414;2023-08-12T00:35:06;14.65;;;8.50;;
68192;SDS011;55012;47.562;18.414;2023-08-12T00:37:32;12.75;;;7.93;;
68192;SDS011;55012;47.562;18.414;2023-08-12T00:39:57;21.70;;;11.95;;
68192;SDS011;55012;47.562;18.414;2023-08-12T00:42:23;12.77;;;8.43;;
68192;SDS011;55012;47.562;18.414;2023-08-12T00:44:48;15.85;;;8.52;;
68192;SDS011;55012;47.562;18.414;2023-08-12T00:47:14;20.70;;;12.23;;
68192;SDS011;55012;47.562;18.414;2023-08-12T00:49:41;16.05;;;8.40;;
68192;SDS011;55012;47.562;18.414;2023-08-12T00:52:11;14.82;;;8.63;;
68192;SDS011;55012;47.562;18.414;2023-08-12T00:54:38;12.88;;;8.25;;
68192;SDS011;55012;47.562;18.414;2023-08-12T00:57:03;13.30;;;8.95;;
68192;SDS011;55012;47.562;18.414;2023-08-12T00:59:30;27.85;;;16.80;;
68192;SDS011;55012;47.562;18.414;2023-08-12T01:01:57;15.27;;;9.20;;
68192;SDS011;55012;47.562;18.414;2023-08-12T01:04:23;10.45;;;7.32;;
68192;SDS011;55012;47.562;18.414;2023-08-12T01:06:49;16.50;;;8.55;;
68192;SDS011;55012;47.562;18.414;2023-08-12T01:09:14;13.63;;;7.97;;
68192;SDS011;55012;47.562;18.414;2023-08-12T01:11:48;12.10;;;7.53;;
68192;SDS011;55012;47.562;18.414;2023-08-12T01:17:05;12.40;;;7.63;;
68192;SDS011;55012;47.562;18.414;2023-08-12T01:19:34;25.38;;;13.45;;
68192;SDS011;55012;47.562;18.414;2023-08-12T01:22:02;15.02;;;9.20;;
68192;SDS011;55012;47.562;18.414;2023-08-12T01:27:02;20.70;;;12.82;;
68192;SDS011;55012;47.562;18.414;2023-08-12T01:29:28;15.63;;;10.05;;
68192;SDS011;55012;47.562;18.414;2023-08-12T01:34:32;21.77;;;14.27;;
68192;SDS011;55012;47.562;18.414;2023-08-12T01:36:59;14.85;;;9.10;;
68192;SDS011;55012;47.562;18.414;2023-08-12T01:39:29;23.50;;;14.52;;
68192;SDS011;55012;47.562;18.414;2023-08-12T01:41:57;20.55;;;13.68;;
68192;SDS011;55012;47.562;18.414;2023-08-12T01:44:23;21.05;;;13.90;;
68192;SDS011;55012;47.562;18.414;2023-08-12T01:46:49;20.20;;;13.25;;
68192;SDS011;55012;47.562;18.414;2023-08-12T01:49:14;13.30;;;9.35;;
68192;SDS011;55012;47.562;18.414;2023-08-12T01:51:39;9.95;;;6.35;;
68192;SDS011;55012;47.562;18.414;2023-08-12T01:54:05;11.15;;;6.15;;
68192;SDS011;55012;47.562;18.414;2023-08-12T01:56:30;7.80;;;5.43;;
68192;SDS011;55012;47.562;18.414;2023-08-12T01:58:56;9.55;;;6.20;;
68192;SDS011;55012;47.562;18.414;2023-08-12T02:01:21;10.43;;;6.70;;
68192;SDS011;55012;47.562;18.414;2023-08-12T02:03:47;7.65;;;5.13;;
68192;SDS011;55012;47.562;18.414;2023-08-12T02:06:12;8.60;;;5.55;;
68192;SDS011;55012;47.562;18.414;2023-08-12T02:08:38;10.52;;;5.40;;
68192;SDS011;55012;47.562;18.414;2023-08-12T02:11:03;9.15;;;6.72;;
68192;SDS011;55012;47.562;18.414;2023-08-12T02:13:29;12.07;;;7.25;;
68192;SDS011;55012;47.562;18.414;2023-08-12T02:15:54;9.68;;;6.18;;
68192;SDS011;55012;47.562;18.414;2023-08-12T02:18:20;11.25;;;7.07;;
68192;SDS011;55012;47.562;18.414;2023-08-12T02:20:46;12.38;;;6.75;;
68192;SDS011;55012;47.562;18.414;2023-08-12T02:23:13;20.77;;;12.90;;
68192;SDS011;55012;47.562;18.414;2023-08-12T02:25:38;9.18;;;6.80;;
68192;SDS011;55012;47.562;18.414;2023-08-12T02:28:04;12.98;;;7.60;;
68192;SDS011;55012;47.562;18.414;2023-08-12T02:30:29;10.77;;;7.05;;
68192;SDS011;55012;47.562;18.414;2023-08-12T02:32:55;11.40;;;6.20;;
68192;SDS011;55012;47.562;18.414;2023-08-12T02:35:21;9.13;;;6.63;;
68192;SDS011;55012;47.562;18.414;2023-08-12T02:37:47;9.98;;;6.50;;
68192;SDS011;55012;47.562;18.414;2023-08-12T02:40:13;13.50;;;8.98;;
68192;SDS011;55012;47.562;18.414;2023-08-12T02:42:39;16.45;;;10.27;;
68192;SDS011;55012;47.562;18.414;2023-08-12T02:45:04;12.18;;;7.15;;
68192;SDS011;55012;47.562;18.414;2023-08-12T02:47:30;13.93;;;8.77;;
68192;SDS011;55012;47.562;18.414;2023-08-12T02:49:55;10.25;;;7.30;;
68192;SDS011;55012;47.562;18.414;2023-08-12T02:52:21;12.70;;;7.28;;
68192;SDS011;55012;47.562;18.414;2023-08-12T02:54:46;10.85;;;6.75;;
68192;SDS011;55012;47.562;18.414;2023-08-12T02:57:13;12.35;;;7.18;;
68192;SDS011;55012;47.562;18.414;2023-08-12T02:59:38;13.88;;;8.23;;
68192;SDS011;55012;47.562;18.414;2023-08-12T03:02:04;11.40;;;7.45;;
68192;SDS011;55012;47.562;18.414;2023-08-12T03:04:29;13.43;;;7.47;;
68192;SDS011;55012;47.562;18.414;2023-08-12T03:06:54;12.10;;;7.00;;
68192;SDS011;55012;47.562;18.414;2023-08-12T03:09:20;13.80;;;7.60;;
68192;SDS011;55012;47.562;18.414;2023-08-12T03:11:46;15.18;;;7.55;;
68192;SDS011;55012;47.562;18.414;2023-08-12T03:14:11;14.15;;;7.78;;
68192;SDS011;55012;47.562;18.414;2023-08-12T03:16:37;15.10;;;7.97;;
68192;SDS011;55012;47.562;18.414;2023-08-12T03:19:02;13.27;;;7.28;;
68192;SDS011;55012;47.562;18.414;2023-08-12T03:21:29;12.02;;;7.80;;
68192;SDS011;55012;47.562;18.414;2023-08-12T03:23:54;14.45;;;7.68;;
68192;SDS011;55012;47.562;18.414;2023-08-12T03:26:20;13.00;;;7.45;;
68192;SDS011;55012;47.562;18.414;2023-08-12T03:28:45;12.40;;;6.68;;
68192;SDS011;55012;47.562;18.414;2023-08-12T03:31:11;15.90;;;10.40;;
68192;SDS011;55012;47.562;18.414;2023-08-12T03:33:36;14.95;;;7.32;;
68192;SDS011;55012;47.562;18.414;2023-08-12T03:36:02;13.32;;;6.68;;
68192;SDS011;55012;47.562;18.414;2023-08-12T03:38:27;12.00;;;6.72;;
68192;SDS011;55012;47.562;18.414;2023-08-12T03:40:53;9.18;;;6.20;;
68192;SDS011;55012;47.562;18.414;2023-08-12T03:43:18;11.73;;;7.10;;
68192;SDS011;55012;47.562;18.414;2023-08-12T03:45:44;11.70;;;6.28;;
68192;SDS011;55012;47.562;18.414;2023-08-12T03:48:10;14.57;;;8.45;;
68192;SDS011;55012;47.562;18.414;2023-08-12T03:50:36;15.18;;;8.57;;
68192;SDS011;55012;47.562;18.414;2023-08-12T03:53:03;13.95;;;8.32;;
68192;SDS011;55012;47.562;18.414;2023-08-12T03:55:32;15.68;;;9.88;;
68192;SDS011;55012;47.562;18.414;2023-08-12T03:57:58;14.40;;;8.98;;
68192;SDS011;55012;47.562;18.414;2023-08-12T04:00:24;12.20;;;7.45;;
68192;SDS011;55012;47.562;18.414;2023-08-12T04:02:50;11.50;;;7.40;;
68192;SDS011;55012;47.562;18.414;2023-08-12T04:05:15;11.82;;;6.72;;
68192;SDS011;55012;47.562;18.414;2023-08-12T04:07:41;9.30;;;6.60;;
68192;SDS011;55012;47.562;18.414;2023-08-12T04:10:07;15.65;;;9.82;;
68192;SDS011;55012;47.562;18.414;2023-08-12T04:12:33;13.80;;;9.05;;
68192;SDS011;55012;47.562;18.414;2023-08-12T04:14:58;14.10;;;8.95;;
68192;SDS011;55012;47.562;18.414;2023-08-12T04:17:24;13.52;;;7.47;;
68192;SDS011;55012;47.562;18.414;2023-08-12T04:19:50;12.30;;;7.75;;
68192;SDS011;55012;47.562;18.414;2023-08-12T04:22:15;14.32;;;8.25;;
68192;SDS011;55012;47.562;18.414;2023-08-12T04:24:41;13.57;;;8.13;;
68192;SDS011;55012;47.562;18.414;2023-08-12T04:27:07;16.67;;;10.23;;
68192;SDS011;55012;47.562;18.414;2023-08-12T04:29:32;14.88;;;7.32;;
68192;SDS011;55012;47.562;18.414;2023-08-12T04:31:58;16.55;;;9.20;;
68192;SDS011;55012;47.562;18.414;2023-08-12T04:34:23;13.88;;;8.82;;
68192;SDS011;55012;47.562;18.414;2023-08-12T04:36:48;16.30;;;9.10;;
68192;SDS011;55012;47.562;18.414;2023-08-12T04:39:14;17.20;;;9.93;;
68192;SDS011;55012;47.562;18.414;2023-08-12T04:41:39;22.60;;;12.25;;
68192;SDS011;55012;47.562;18.414;2023-08-12T04:44:05;14.73;;;8.45;;
68192;SDS011;55012;47.562;18.414;2023-08-12T04:46:30;14.25;;;9.02;;
68192;SDS011;55012;47.562;18.414;2023-08-12T04:48:57;16.35;;;9.00;;
68192;SDS011;55012;47.562;18.414;2023-08-12T04:51:22;12.80;;;8.23;;
68192;SDS011;55012;47.562;18.414;2023-08-12T04:53:47;15.48;;;8.43;;
68192;SDS011;55012;47.562;18.414;2023-08-12T04:56:13;14.18;;;8.00;;
68192;SDS011;55012;47.562;18.414;2023-08-12T04:58:38;15.27;;;9.13;;
68192;SDS011;55012;47.562;18.414;2023-08-12T05:01:04;11.60;;;7.40;;
68192;SDS011;55012;47.562;18.414;2023-08-12T05:03:29;13.63;;;7.50;;
68192;SDS011;55012;47.562;18.414;2023-08-12T05:05:55;14.23;;;7.60;;
68192;SDS011;55012;47.562;18.414;2023-08-12T05:08:20;14.68;;;8.05;;
68192;SDS011;55012;47.562;18.414;2023-08-12T05:10:49;11.65;;;7.47;;
68192;SDS011;55012;47.562;18.414;2023-08-12T05:13:15;13.80;;;7.65;;
68192;SDS011;55012;47.562;18.414;2023-08-12T05:15:44;12.68;;;7.28;;
68192;SDS011;55012;47.562;18.414;2023-08-12T05:18:10;13.55;;;7.40;;
68192;SDS011;55012;47.562;18.414;2023-08-12T05:20:35;16.95;;;9.60;;
68192;SDS011;55012;47.562;18.414;2023-08-12T05:23:01;11.98;;;7.40;;
68192;SDS011;55012;47.562;18.414;2023-08-12T05:25:26;17.92;;;10.65;;
68192;SDS011;55012;47.562;18.414;2023-08-12T05:27:52;14.07;;;8.23;;
68192;SDS011;55012;47.562;18.414;2023-08-12T05:30:17;19.63;;;8.63;;
68192;SDS011;55012;47.562;18.414;2023-08-12T05:32:43;16.38;;;7.97;;
68192;SDS011;55012;47.562;18.414;2023-08-12T05:35:08;13.70;;;7.13;;
68192;SDS011;55012;47.562;18.414;2023-08-12T05:37:34;19.65;;;10.13;;
68192;SDS011;55012;47.562;18.414;2023-08-12T05:39:59;19.80;;;9.65;;
68192;SDS011;55012;47.562;18.414;2023-08-12T05:42:25;17.13;;;9.00;;
68192;SDS011;55012;47.562;18.414;2023-08-12T05:44:50;13.80;;;8.45;;
68192;SDS011;55012;47.562;18.414;2023-08-12T05:47:16;13.77;;;8.93;;
68192;SDS011;55012;47.562;18.414;2023-08-12T05:49:41;15.48;;;8.82;;
68192;SDS011;55012;47.562;18.414;2023-08-12T05:52:07;19.63;;;10.85;;
68192;SDS011;55012;47.562;18.414;2023-08-12T05:54:33;30.08;;;13.27;;
68192;SDS011;55012;47.562;18.414;2023-08-12T05:56:58;25.63;;;12.65;;
68192;SDS011;55012;47.562;18.414;2023-08-12T05:59:24;27.83;;;12.60;;
68192;SDS011;55012;47.562;18.414;2023-08-12T06:01:49;28.98;;;12.50;;
68192;SDS011;55012;47.562;18.414;2023-08-12T06:04:15;26.42;;;11.93;;
68192;SDS011;55012;47.562;18.414;2023-08-12T06:06:41;28.33;;;14.63;;
68192;SDS011;55012;47.562;18.414;2023-08-12T06:09:07;28.42;;;12.38;;
68192;SDS011;55012;47.562;18.414;2023-08-12T06:11:33;17.23;;;8.80;;
68192;SDS011;55012;47.562;18.414;2023-08-12T06:13:58;16.00;;;8.52;;
68192;SDS011;55012;47.562;18.414;2023-08-12T06:16:23;18.33;;;9.07;;
68192;SDS011;55012;47.562;18.414;2023-08-12T06:18:49;13.35;;;7.00;;
68192;SDS011;55012;47.562;18.414;2023-08-12T06:21:14;13.82;;;6.80;;
68192;SDS011;55012;47.562;18.414;2023-08-12T06:23:40;11.80;;;6.43;;
68192;SDS011;55012;47.562;18.414;2023-08-12T06:26:05;11.38;;;6.13;;
68192;SDS011;55012;47.562;18.414;2023-08-12T06:28:31;10.75;;;5.45;;
68192;SDS011;55012;47.562;18.414;2023-08-12T06:30:56;8.55;;;4.80;;
68192;SDS011;55012;47.562;18.414;2023-08-12T06:33:22;7.57;;;5.15;;
68192;SDS011;55012;47.562;18.414;2023-08-12T06:35:47;15.07;;;8.05;;
68192;SDS011;55012;47.562;18.414;2023-08-12T06:38:12;7.43;;;4.55;;
68192;SDS011;55012;47.562;18.414;2023-08-12T06:40:38;6.30;;;4.05;;
68192;SDS011;55012;47.562;18.414;2023-08-12T06:43:04;6.45;;;4.00;;
68192;SDS011;55012;47.562;18.414;2023-08-12T06:45:30;7.20;;;4.47;;
68192;SDS011;55012;47.562;18.414;2023-08-12T06:47:55;7.63;;;4.70;;
68192;SDS011;55012;47.562;18.414;2023-08-12T06:50:20;10.10;;;6.50;;
68192;SDS011;55012;47.562;18.414;2023-08-12T06:52:46;5.13;;;3.88;;
68192;SDS011;55012;47.562;18.414;2023-08-12T06:55:11;8.93;;;5.97;;
68192;SDS011;55012;47.562;18.414;2023-08-12T06:57:37;9.18;;;5.82;;
68192;SDS011;55012;47.562;18.414;2023-08-12T07:00:02;5.00;;;3.90;;
68192;SDS011;55012;47.562;18.414;2023-08-12T07:02:28;9.07;;;5.63;;
68192;SDS011;55012;47.562;18.414;2023-08-12T07:04:54;5.45;;;3.92;;
68192;SDS011;55012;47.562;18.414;2023-08-12T07:07:20;7.57;;;4.30;;
68192;SDS011;55012;47.562;18.414;2023-08-12T07:09:45;6.25;;;3.85;;
68192;SDS011;55012;47.562;18.414;2023-08-12T07:12:10;8.50;;;5.82;;
68192;SDS011;55012;47.562;18.414;2023-08-12T07:14:36;4.63;;;3.35;;
68192;SDS011;55012;47.562;18.414;2023-08-12T07:17:01;6.63;;;3.80;;
68192;SDS011;55012;47.562;18.414;2023-08-12T07:19:27;4.55;;;3.70;;
68192;SDS011;55012;47.562;18.414;2023-08-12T07:21:52;6.63;;;4.72;;
68192;SDS011;55012;47.562;18.414;2023-08-12T07:24:17;7.80;;;5.30;;
68192;SDS011;55012;47.562;18.414;2023-08-12T07:26:43;8.43;;;5.18;;
68192;SDS011;55012;47.562;18.414;2023-08-12T07:29:08;7.47;;;4.22;;
68192;SDS011;55012;47.562;18.414;2023-08-12T07:31:34;7.13;;;4.82;;
68192;SDS011;55012;47.562;18.414;2023-08-12T07:34:00;4.32;;;3.55;;
68192;SDS011;55012;47.562;18.414;2023-08-12T07:36:25;5.55;;;3.28;;
68192;SDS011;55012;47.562;18.414;2023-08-12T07:38:51;4.43;;;3.33;;
68192;SDS011;55012;47.562;18.414;2023-08-12T07:41:16;5.10;;;4.03;;
68192;SDS011;55012;47.562;18.414;2023-08-12T07:43:42;4.82;;;3.80;;
68192;SDS011;55012;47.562;18.414;2023-08-12T07:46:07;4.32;;;3.30;;
68192;SDS011;55012;47.562;18.414;2023-08-12T07:48:33;3.75;;;2.97;;
68192;SDS011;55012;47.562;18.414;2023-08-12T07:50:59;4.78;;;3.85;;
68192;SDS011;55012;47.562;18.414;2023-08-12T07:53:25;8.20;;;4.15;;
68192;SDS011;55012;47.562;18.414;2023-08-12T07:55:51;3.92;;;3.40;;
68192;SDS011;55012;47.562;18.414;2023-08-12T07:58:17;4.70;;;3.70;;
68192;SDS011;55012;47.562;18.414;2023-08-12T08:00:42;5.85;;;3.45;;
68192;SDS011;55012;47.562;18.414;2023-08-12T08:03:08;4.95;;;3.03;;
68192;SDS011;55012;47.562;18.414;2023-08-12T08:05:33;3.53;;;2.90;;
68192;SDS011;55012;47.562;18.414;2023-08-12T08:07:59;3.67;;;2.90;;
68192;SDS011;55012;47.562;18.414;2023-08-12T08:10:24;4.97;;;2.92;;
68192;SDS011;55012;47.562;18.414;2023-08-12T08:12:50;5.22;;;3.60;;
68192;SDS011;55012;47.562;18.414;2023-08-12T08:15:15;3.67;;;2.92;;
68192;SDS011;55012;47.562;18.414;2023-08-12T08:17:41;4.00;;;3.10;;
68192;SDS011;55012;47.562;18.414;2023-08-12T08:20:07;5.00;;;3.40;;
68192;SDS011;55012;47.562;18.414;2023-08-12T08:22:33;4.65;;;3.20;;
68192;SDS011;55012;47.562;18.414;2023-08-12T08:24:58;4.78;;;3.17;;
68192;SDS011;55012;47.562;18.414;2023-08-12T08:27:24;4.53;;;3.00;;
68192;SDS011;55012;47.562;18.414;2023-08-12T08:29:50;4.05;;;3.60;;
68192;SDS011;55012;47.562;18.414;2023-08-12T08:32:15;4.45;;;3.63;;
68192;SDS011;55012;47.562;18.414;2023-08-12T08:34:41;5.57;;;3.38;;
68192;SDS011;55012;47.562;18.414;2023-08-12T08:37:07;4.18;;;3.47;;
68192;SDS011;55012;47.562;18.414;2023-08-12T08:39:32;4.72;;;3.75;;
68192;SDS011;55012;47.562;18.414;2023-08-12T08:41:58;4.68;;;3.47;;
68192;SDS011;55012;47.562;18.414;2023-08-12T08:44:24;4.70;;;3.40;;
68192;SDS011;55012;47.562;18.414;2023-08-12T08:46:54;5.00;;;3.50;;
68192;SDS011;55012;47.562;18.414;2023-08-12T08:49:20;4.38;;;3.20;;
68192;SDS011;55012;47.562;18.414;2023-08-12T08:51:47;5.22;;;3.50;;
68192;SDS011;55012;47.562;18.414;2023-08-12T08:54:13;7.15;;;3.38;;
68192;SDS011;55012;47.562;18.414;2023-08-12T08:56:39;3.53;;;3.00;;
68192;SDS011;55012;47.562;18.414;2023-08-12T08:59:04;5.38;;;3.50;;
68192;SDS011;55012;47.562;18.414;2023-08-12T09:01:30;5.90;;;3.22;;
68192;SDS011;55012;47.562;18.414;2023-08-12T09:03:57;3.50;;;2.78;;
68192;SDS011;55012;47.562;18.414;2023-08-12T09:06:25;6.63;;;2.80;;
68192;SDS011;55012;47.562;18.414;2023-08-12T09:08:53;3.00;;;2.70;;
68192;SDS011;55012;47.562;18.414;2023-08-12T09:11:19;3.05;;;2.70;;
68192;SDS011;55012;47.562;18.414;2023-08-12T09:13:45;3.95;;;2.92;;
68192;SDS011;55012;47.562;18.414;2023-08-12T09:16:12;3.88;;;3.20;;
68192;SDS011;55012;47.562;18.414;2023-08-12T09:18:38;4.03;;;2.97;;
68192;SDS011;55012;47.562;18.414;2023-08-12T09:21:05;5.63;;;3.35;;
68192;SDS011;55012;47.562;18.414;2023-08-12T09:23:40;5.53;;;3.15;;
68192;SDS011;55012;47.562;18.414;2023-08-12T09:26:13;4.32;;;2.72;;
68192;SDS011;55012;47.562;18.414;2023-08-12T09:28:41;4.10;;;3.00;;
68192;SDS011;55012;47.562;18.414;2023-08-12T09:31:07;3.33;;;2.92;;
68192;SDS011;55012;47.562;18.414;2023-08-12T09:33:32;6.10;;;2.85;;
68192;SDS011;55012;47.562;18.414;2023-08-12T09:36:04;3.72;;;2.80;;
68192;SDS011;55012;47.562;18.414;2023-08-12T09:38:30;6.15;;;2.70;;
68192;SDS011;55012;47.562;18.414;2023-08-12T09:40:56;4.15;;;2.88;;
68192;SDS011;55012;47.562;18.414;2023-08-12T09:43:24;5.28;;;3.20;;
68192;SDS011;55012;47.562;18.414;2023-08-12T09:45:55;4.18;;;3.03;;
68192;SDS011;55012;47.562;18.414;2023-08-12T09:48:21;5.97;;;3.15;;
68192;SDS011;55012;47.562;18.414;2023-08-12T09:50:47;3.38;;;2.85;;
68192;SDS011;55012;47.562;18.414;2023-08-12T09:53:12;4.50;;;3.10;;
68192;SDS011;55012;47.562;18.414;2023-08-12T09:55:38;4.97;;;3.03;;
68192;SDS011;55012;47.562;18.414;2023-08-12T09:58:06;5.00;;;3.00;;
68192;SDS011;55012;47.562;18.414;2023-08-12T10:00:34;3.85;;;2.80;;
68192;SDS011;55012;47.562;18.414;2023-08-12T10:03:00;4.75;;;3.00;;
68192;SDS011;55012;47.562;18.414;2023-08-12T10:05:30;5.97;;;3.22;;
68192;SDS011;55012;47.562;18.414;2023-08-12T10:07:57;3.20;;;2.90;;
68192;SDS011;55012;47.562;18.414;2023-08-12T10:10:24;5.70;;;3.20;;
68192;SDS011;55012;47.562;18.414;2023-08-12T10:12:50;6.32;;;3.10;;
68192;SDS011;55012;47.562;18.414;2023-08-12T10:15:16;5.47;;;3.15;;
68192;SDS011;55012;47.562;18.414;2023-08-12T10:17:42;6.97;;;3.25;;
68192;SDS011;55012;47.562;18.414;2023-08-12T10:20:12;5.55;;;3.20;;
68192;SDS011;55012;47.562;18.414;2023-08-12T10:22:38;4.30;;;3.28;;
68192;SDS011;55012;47.562;18.414;2023-08-12T10:25:06;5.15;;;3.33;;
68192;SDS011;55012;47.562;18.414;2023-08-12T10:27:36;4.70;;;3.10;;
68192;SDS011;55012;47.562;18.414;2023-08-12T10:30:05;4.65;;;3.30;;
68192;SDS011;55012;47.562;18.414;2023-08-12T10:32:32;4.90;;;3.20;;
68192;SDS011;55012;47.562;18.414;2023-08-12T10:34:58;5.70;;;3.58;;
68192;SDS011;55012;47.562;18.414;2023-08-12T10:37:24;5.00;;;3.20;;
68192;SDS011;55012;47.562;18.414;2023-08-12T10:39:53;3.83;;;3.20;;
68192;SDS011;55012;47.562;18.414;2023-08-12T10:45:12;5.22;;;3.30;;
68192;SDS011;55012;47.562;18.414;2023-08-12T10:48:09;4.03;;;3.10;;
68192;SDS011;55012;47.562;18.414;2023-08-12T10:50:35;5.13;;;3.40;;
68192;SDS011;55012;47.562;18.414;2023-08-12T10:53:20;4.47;;;3.22;;
68192;SDS011;55012;47.562;18.414;2023-08-12T10:55:54;3.90;;;3.50;;
68192;SDS011;55012;47.562;18.414;2023-08-12T10:58:24;4.57;;;3.88;;
68192;SDS011;55012;47.562;18.414;2023-08-12T11:00:53;7.20;;;3.65;;
68192;SDS011;55012;47.562;18.414;2023-08-12T11:03:19;3.83;;;3.30;;
68192;SDS011;55012;47.562;18.414;2023-08-12T11:05:45;7.25;;;3.70;;
68192;SDS011;55012;47.562;18.414;2023-08-12T11:08:15;4.75;;;3.40;;
68192;SDS011;55012;47.562;18.414;2023-08-12T11:10:41;5.43;;;3.15;;
68192;SDS011;55012;47.562;18.414;2023-08-12T11:13:08;4.25;;;3.38;;
68192;SDS011;55012;47.562;18.414;2023-08-12T11:15:35;4.25;;;3.40;;
68192;SDS011;55012;47.562;18.414;2023-08-12T11:18:06;5.20;;;3.35;;
68192;SDS011;55012;47.562;18.414;2023-08-12T11:20:36;3.63;;;3.33;;
68192;SDS011;55012;47.562;18.414;2023-08-12T11:23:03;3.83;;;3.28;;
68192;SDS011;55012;47.562;18.414;2023-08-12T11:25:30;4.32;;;3.38;;
68192;SDS011;55012;47.562;18.414;2023-08-12T11:27:56;4.70;;;3.40;;
68192;SDS011;55012;47.562;18.414;2023-08-12T11:30:22;5.57;;;3.20;;
68192;SDS011;55012;47.562;18.414;2023-08-12T11:32:49;4.10;;;3.47;;
68192;SDS011;55012;47.562;18.414;2023-08-12T11:35:17;4.35;;;3.50;;
68192;SDS011;55012;47.562;18.414;2023-08-12T11:37:47;3.90;;;3.50;;
68192;SDS011;55012;47.562;18.414;2023-08-12T11:40:14;4.35;;;3.60;;
68192;SDS011;55012;47.562;18.414;2023-08-12T11:42:42;4.40;;;3.70;;
68192;SDS011;55012;47.562;18.414;2023-08-12T11:45:09;4.10;;;3.53;;
68192;SDS011;55012;47.562;18.414;2023-08-12T11:47:36;4.90;;;3.42;;
68192;SDS011;55012;47.562;18.414;2023-08-12T11:50:07;3.80;;;3.20;;
68192;SDS011;55012;47.562;18.414;2023-08-12T11:52:34;4.18;;;3.22;;
68192;SDS011;55012;47.562;18.414;2023-08-12T11:55:01;3.80;;;3.30;;
68192;SDS011;55012;47.562;18.414;2023-08-12T11:57:27;6.03;;;4.07;;
68192;SDS011;55012;47.562;18.414;2023-08-12T11:59:58;4.20;;;3.45;;
68192;SDS011;55012;47.562;18.414;2023-08-12T12:02:25;10.63;;;7.13;;
68192;SDS011;55012;47.562;18.414;2023-08-12T12:04:53;4.20;;;3.60;;
68192;SDS011;55012;47.562;18.414;2023-08-12T12:07:20;4.68;;;3.65;;
68192;SDS011;55012;47.562;18.414;2023-08-12T12:09:51;4.10;;;3.60;;
68192;SDS011;55012;47.562;18.414;2023-08-12T12:12:17;4.28;;;3.25;;
68192;SDS011;55012;47.562;18.414;2023-08-12T12:14:46;4.78;;;3.13;;
68192;SDS011;55012;47.562;18.414;2023-08-12T12:17:14;3.00;;;2.70;;
68192;SDS011;55012;47.562;18.414;2023-08-12T12:19:39;3.25;;;2.70;;
68192;SDS011;55012;47.562;18.414;2023-08-12T12:22:06;3.30;;;2.97;;
68192;SDS011;55012;47.562;18.414;2023-08-12T12:24:31;3.53;;;3.10;;
68192;SDS011;55012;47.562;18.414;2023-08-12T12:27:10;3.33;;;3.03;;
68192;SDS011;55012;47.562;18.414;2023-08-12T12:29:36;3.25;;;2.90;;
68192;SDS011;55012;47.562;18.414;2023-08-12T12:32:01;3.63;;;3.00;;
68192;SDS011;55012;47.562;18.414;2023-08-12T12:34:27;3.03;;;2.70;;
68192;SDS011;55012;47.562;18.414;2023-08-12T12:36:52;3.60;;;3.00;;
68192;SDS011;55012;47.562;18.414;2023-08-12T12:39:18;3.50;;;3.20;;
68192;SDS011;55012;47.562;18.414;2023-08-12T12:41:43;3.78;;;3.38;;
68192;SDS011;55012;47.562;18.414;2023-08-12T12:44:09;3.80;;;3.30;;
68192;SDS011;55012;47.562;18.414;2023-08-12T12:46:34;4.15;;;3.30;;
68192;SDS011;55012;47.562;18.414;2023-08-12T12:49:00;3.88;;;3.08;;
68192;SDS011;55012;47.562;18.414;2023-08-12T12:51:25;5.63;;;3.70;;
68192;SDS011;55012;47.562;18.414;2023-08-12T12:53:51;5.32;;;3.20;;
68192;SDS011;55012;47.562;18.414;2023-08-12T12:56:16;5.65;;;3.45;;
68192;SDS011;55012;47.562;18.414;2023-08-12T12:58:42;4.60;;;3.10;;
68192;SDS011;55012;47.562;18.414;2023-08-12T13:01:07;3.40;;;2.90;;
68192;SDS011;55012;47.562;18.414;2023-08-12T13:03:33;9.77;;;3.45;;
68192;SDS011;55012;47.562;18.414;2023-08-12T13:05:58;5.75;;;3.17;;
68192;SDS011;55012;47.562;18.414;2023-08-12T13:08:24;5.03;;;3.10;;
68192;SDS011;55012;47.562;18.414;2023-08-12T13:10:50;5.43;;;3.28;;
68192;SDS011;55012;47.562;18.414;2023-08-12T13:13:16;3.38;;;2.95;;
68192;SDS011;55012;47.562;18.414;2023-08-12T13:15:42;3.70;;;3.10;;
68192;SDS011;55012;47.562;18.414;2023-08-12T13:18:09;5.10;;;3.20;;
68192;SDS011;55012;47.562;18.414;2023-08-12T13:20:35;3.72;;;3.13;;
68192;SDS011;55012;47.562;18.414;2023-08-12T13:23:01;3.78;;;3.22;;
68192;SDS011;55012;47.562;18.414;2023-08-12T13:25:31;3.60;;;2.83;;
68192;SDS011;55012;47.562;18.414;2023-08-12T13:28:01;4.90;;;3.20;;
68192;SDS011;55012;47.562;18.414;2023-08-12T13:30:28;3.63;;;3.17;;
68192;SDS011;55012;47.562;18.414;2023-08-12T13:32:53;4.05;;;3.10;;
68192;SDS011;55012;47.562;18.414;2023-08-12T13:35:20;3.55;;;3.10;;
68192;SDS011;55012;47.562;18.414;2023-08-12T13:37:45;4.50;;;3.20;;
68192;SDS011;55012;47.562;18.414;2023-08-12T13:40:11;3.28;;;2.97;;
68192;SDS011;55012;47.562;18.414;2023-08-12T13:42:37;3.28;;;2.95;;
68192;SDS011;55012;47.562;18.414;2023-08-12T13:45:03;5.13;;;2.95;;
68192;SDS011;55012;47.562;18.414;2023-08-12T13:47:29;6.65;;;2.90;;
68192;SDS011;55012;47.562;18.414;2023-08-12T13:49:55;3.47;;;2.72;;
68192;SDS011;55012;47.562;18.414;2023-08-12T13:52:20;5.07;;;2.53;;
68192;SDS011;55012;47.562;18.414;2023-08-12T13:54:46;4.53;;;2.22;;
68192;SDS011;55012;47.562;18.414;2023-08-12T13:57:11;3.75;;;2.60;;
68192;SDS011;55012;47.562;18.414;2023-08-12T13:59:37;2.50;;;2.30;;
68192;SDS011;55012;47.562;18.414;2023-08-12T14:02:02;5.45;;;3.08;;
68192;SDS011;55012;47.562;18.414;2023-08-12T14:04:28;5.43;;;2.45;;
68192;SDS011;55012;47.562;18.414;2023-08-12T14:06:53;2.80;;;2.40;;
68192;SDS011;55012;47.562;18.414;2023-08-12T14:09:19;2.97;;;2.65;;
68192;SDS011;55012;47.562;18.414;2023-08-12T14:11:45;2.67;;;2.35;;
68192;SDS011;55012;47.562;18.414;2023-08-12T14:14:10;3.60;;;2.40;;
68192;SDS011;55012;47.562;18.414;2023-08-12T14:16:36;3.35;;;2.30;;
68192;SDS011;55012;47.562;18.414;2023-08-12T14:19:02;3.15;;;2.30;;
68192;SDS011;55012;47.562;18.414;2023-08-12T14:21:27;4.05;;;2.50;;
68192;SDS011;55012;47.562;18.414;2023-08-12T14:23:53;3.20;;;2.20;;
68192;SDS011;55012;47.562;18.414;2023-08-12T14:26:18;5.20;;;2.30;;
68192;SDS011;55012;47.562;18.414;2023-08-12T14:28:44;4.20;;;2.20;;
68192;SDS011;55012;47.562;18.414;2023-08-12T14:31:09;4.00;;;2.20;;
68192;SDS011;55012;47.562;18.414;2023-08-12T14:33:34;3.45;;;2.13;;